createdAt,value
2019-03-16T00:00:24.149Z,39
2019-03-16T00:00:50.134Z,39
2019-03-16T00:01:16.136Z,39
2019-03-16T00:01:42.212Z,38
2019-03-16T00:02:08.144Z,39
2019-03-16T00:02:34.148Z,38
2019-03-16T00:03:00.133Z,38
2019-03-16T00:03:26.139Z,39
2019-03-16T00:03:52.135Z,39
2019-03-16T00:04:18.153Z,38
2019-03-16T00:04:44.216Z,39
2019-03-16T00:05:10.156Z,39
2019-03-16T00:05:36.144Z,39
2019-03-16T00:06:02.156Z,39
2019-03-16T00:06:28.137Z,39
2019-03-16T00:06:54.157Z,39
2019-03-16T00:07:20.143Z,39
2019-03-16T00:07:46.139Z,39
2019-03-16T00:08:12.159Z,39
2019-03-16T00:08:38.147Z,39
2019-03-16T00:09:04.156Z,39
2019-03-16T00:09:30.144Z,39
2019-03-16T00:09:56.149Z,39
2019-03-16T00:10:22.160Z,39
2019-03-16T00:10:48.214Z,39
2019-03-16T00:11:14.159Z,39
2019-03-16T00:11:40.161Z,39
2019-03-16T00:12:06.145Z,39
2019-03-16T00:12:32.158Z,39
2019-03-16T00:12:58.150Z,39
2019-03-16T00:13:24.169Z,39
2019-03-16T00:13:50.147Z,39
2019-03-16T00:14:16.155Z,39
2019-03-16T00:14:42.170Z,39
2019-03-16T00:15:08.172Z,39
2019-03-16T00:15:34.163Z,39
2019-03-16T00:16:00.167Z,39
2019-03-16T00:16:26.153Z,38
2019-03-16T00:16:52.155Z,38
2019-03-16T00:17:18.155Z,38
2019-03-16T00:17:44.174Z,39
2019-03-16T00:18:10.174Z,39
2019-03-16T00:18:36.154Z,39
2019-03-16T00:19:02.175Z,39
2019-03-16T00:19:28.154Z,39
2019-03-16T00:19:54.171Z,39
2019-03-16T00:20:20.155Z,39
2019-03-16T00:20:46.159Z,39
2019-03-16T00:21:12.175Z,39
2019-03-16T00:21:38.165Z,39
2019-03-16T00:22:04.173Z,39
2019-03-16T00:22:30.163Z,39
2019-03-16T00:22:56.163Z,39
2019-03-16T00:23:22.179Z,39
2019-03-16T00:23:48.181Z,39
2019-03-16T00:24:14.244Z,39
2019-03-16T00:24:40.180Z,39
2019-03-16T00:25:06.175Z,39
2019-03-16T00:25:32.178Z,39
2019-03-16T00:25:58.164Z,39
2019-03-16T00:26:24.181Z,39
2019-03-16T00:26:50.168Z,39
2019-03-16T00:27:16.175Z,39
2019-03-16T00:27:42.193Z,39
2019-03-16T00:28:08.188Z,39
2019-03-16T00:28:34.187Z,39
2019-03-16T00:29:00.209Z,39
2019-03-16T00:29:26.168Z,39
2019-03-16T00:29:52.172Z,39
2019-03-16T00:30:18.172Z,39
2019-03-16T00:30:44.196Z,39
2019-03-16T00:31:10.253Z,39
2019-03-16T00:31:36.175Z,39
2019-03-16T00:32:02.202Z,39
2019-03-16T00:32:28.175Z,39
2019-03-16T00:32:54.451Z,39
2019-03-16T00:33:20.174Z,39
2019-03-16T00:33:46.188Z,39
2019-03-16T00:34:12.194Z,39
2019-03-16T00:34:38.266Z,39
2019-03-16T00:35:04.260Z,39
2019-03-16T00:35:30.200Z,39
2019-03-16T00:35:56.180Z,39
2019-03-16T00:36:22.207Z,39
2019-03-16T00:36:48.220Z,39
2019-03-16T00:37:14.192Z,38
2019-03-16T00:37:40.190Z,39
2019-03-16T00:38:06.252Z,39
2019-03-16T00:38:32.204Z,39
2019-03-16T00:38:58.181Z,39
2019-03-16T00:39:24.199Z,39
2019-03-16T00:39:50.183Z,39
2019-03-16T00:40:16.185Z,39
2019-03-16T00:40:42.195Z,39
2019-03-16T00:41:08.270Z,39
2019-03-16T00:41:34.207Z,39
2019-03-16T00:42:00.204Z,39
2019-03-16T00:42:26.201Z,39
2019-03-16T00:42:52.206Z,39
2019-03-16T00:43:18.198Z,39
2019-03-16T00:43:44.206Z,39
2019-03-16T00:44:10.189Z,39
2019-03-16T00:44:36.201Z,39
2019-03-16T00:45:02.209Z,39
2019-03-16T00:45:28.763Z,39
2019-03-16T00:45:54.207Z,39
2019-03-16T00:46:20.209Z,39
2019-03-16T00:46:46.196Z,39
2019-03-16T00:47:12.196Z,39
2019-03-16T00:47:38.197Z,39
2019-03-16T00:48:04.213Z,39
2019-03-16T00:48:30.293Z,39
2019-03-16T00:48:56.199Z,39
2019-03-16T00:49:22.219Z,39
2019-03-16T00:49:48.200Z,39
2019-03-16T00:50:14.215Z,39
2019-03-16T00:50:40.206Z,39
2019-03-16T00:51:06.206Z,39
2019-03-16T00:51:32.208Z,39
2019-03-16T00:51:58.221Z,39
2019-03-16T00:52:24.286Z,39
2019-03-16T00:52:50.224Z,39
2019-03-16T00:53:16.209Z,39
2019-03-16T00:53:42.221Z,39
2019-03-16T00:54:08.205Z,39
2019-03-16T00:54:34.214Z,39
2019-03-16T00:55:00.223Z,39
2019-03-16T00:55:26.282Z,39
2019-03-16T00:55:52.221Z,39
2019-03-16T00:56:18.208Z,39
2019-03-16T00:56:44.226Z,39
2019-03-16T00:57:10.215Z,39
2019-03-16T00:57:36.218Z,39
2019-03-16T00:58:02.208Z,39
2019-03-16T00:58:28.226Z,39
2019-03-16T00:58:54.226Z,39
2019-03-16T00:59:20.294Z,39
2019-03-16T00:59:46.213Z,39
2019-03-16T01:00:12.226Z,39
2019-03-16T01:00:38.218Z,39
2019-03-16T01:01:04.231Z,39
2019-03-16T01:01:30.506Z,39
2019-03-16T01:01:56.226Z,39
2019-03-16T01:02:22.238Z,39
2019-03-16T01:02:48.236Z,39
2019-03-16T01:03:14.231Z,39
2019-03-16T01:03:40.219Z,39
2019-03-16T01:04:06.218Z,39
2019-03-16T01:04:32.220Z,39
2019-03-16T01:04:58.232Z,39
2019-03-16T01:05:24.309Z,39
2019-03-16T01:05:50.238Z,38
2019-03-16T01:06:16.224Z,39
2019-03-16T01:06:42.243Z,39
2019-03-16T01:07:08.229Z,39
2019-03-16T01:07:34.242Z,39
2019-03-16T01:08:00.224Z,39
2019-03-16T01:08:26.235Z,39
2019-03-16T01:08:52.308Z,39
2019-03-16T01:09:18.242Z,39
2019-03-16T01:09:44.245Z,39
2019-03-16T01:10:10.244Z,39
2019-03-16T01:10:36.236Z,39
2019-03-16T01:11:02.243Z,39
2019-03-16T01:11:28.232Z,38
2019-03-16T01:11:54.239Z,38
2019-03-16T01:12:20.248Z,38
2019-03-16T01:12:46.230Z,38
2019-03-16T01:13:12.249Z,38
2019-03-16T01:13:38.236Z,38
2019-03-16T01:14:04.247Z,38
2019-03-16T01:14:30.234Z,38
2019-03-16T01:14:56.238Z,38
2019-03-16T01:15:22.292Z,38
2019-03-16T01:15:48.239Z,38
2019-03-16T01:16:14.249Z,38
2019-03-16T01:16:40.321Z,38
2019-03-16T01:17:06.236Z,38
2019-03-16T01:17:32.253Z,38
2019-03-16T01:17:58.240Z,38
2019-03-16T01:18:24.254Z,39
2019-03-16T01:18:50.241Z,38
2019-03-16T01:19:16.241Z,38
2019-03-16T01:19:42.253Z,38
2019-03-16T01:20:08.260Z,38
2019-03-16T01:20:34.258Z,38
2019-03-16T01:21:00.265Z,38
2019-03-16T01:21:26.241Z,38
2019-03-16T01:21:52.243Z,38
2019-03-16T01:22:18.245Z,38
2019-03-16T01:22:44.262Z,38
2019-03-16T01:23:10.330Z,38
2019-03-16T01:23:36.248Z,38
2019-03-16T01:24:02.265Z,38
2019-03-16T01:24:28.252Z,38
2019-03-16T01:24:54.444Z,38
2019-03-16T01:25:20.250Z,38
2019-03-16T01:25:46.267Z,38
2019-03-16T01:26:12.267Z,38
2019-03-16T01:26:38.268Z,38
2019-03-16T01:27:04.387Z,38
2019-03-16T01:27:30.269Z,38
2019-03-16T01:27:56.254Z,38
2019-03-16T01:28:22.274Z,38
2019-03-16T01:28:48.255Z,38
2019-03-16T01:29:14.259Z,38
2019-03-16T01:29:40.270Z,39
2019-03-16T01:30:06.323Z,37
2019-03-16T01:30:32.279Z,38
2019-03-16T01:30:58.447Z,38
2019-03-16T01:31:24.273Z,38
2019-03-16T01:31:50.262Z,38
2019-03-16T01:32:16.259Z,38
2019-03-16T01:32:42.262Z,38
2019-03-16T01:33:08.263Z,38
2019-03-16T01:33:34.281Z,38
2019-03-16T01:34:00.349Z,38
2019-03-16T01:34:26.263Z,38
2019-03-16T01:34:52.280Z,38
2019-03-16T01:35:18.265Z,38
2019-03-16T01:35:44.280Z,38
2019-03-16T01:36:10.266Z,38
2019-03-16T01:36:36.261Z,38
2019-03-16T01:37:02.275Z,38
2019-03-16T01:37:28.345Z,38
2019-03-16T01:37:54.285Z,38
2019-03-16T01:38:20.288Z,39
2019-03-16T01:38:46.275Z,38
2019-03-16T01:39:12.284Z,38
2019-03-16T01:39:38.269Z,38
2019-03-16T01:40:04.271Z,38
2019-03-16T01:40:30.295Z,38
2019-03-16T01:40:56.271Z,38
2019-03-16T01:41:22.297Z,38
2019-03-16T01:41:48.357Z,38
2019-03-16T01:42:14.287Z,38
2019-03-16T01:42:40.645Z,38
2019-03-16T01:43:06.275Z,38
2019-03-16T01:43:32.286Z,39
2019-03-16T01:43:58.360Z,39
2019-03-16T01:44:24.295Z,39
2019-03-16T01:44:50.292Z,39
2019-03-16T01:45:16.285Z,39
2019-03-16T01:45:42.295Z,39
2019-03-16T01:46:08.277Z,39
2019-03-16T01:46:34.297Z,38
2019-03-16T01:47:00.289Z,39
2019-03-16T01:47:26.291Z,38
2019-03-16T01:47:52.310Z,39
2019-03-16T01:48:18.299Z,39
2019-03-16T01:48:44.298Z,39
2019-03-16T01:49:10.301Z,39
2019-03-16T01:49:36.286Z,39
2019-03-16T01:50:02.285Z,39
2019-03-16T01:50:28.285Z,39
2019-03-16T01:50:54.293Z,39
2019-03-16T01:51:20.303Z,39
2019-03-16T01:51:46.297Z,39
2019-03-16T01:52:12.325Z,39
2019-03-16T01:52:38.291Z,39
2019-03-16T01:53:04.304Z,39
2019-03-16T01:53:30.293Z,39
2019-03-16T01:53:56.293Z,39
2019-03-16T01:54:22.310Z,39
2019-03-16T01:54:48.313Z,39
2019-03-16T01:55:14.306Z,39
2019-03-16T01:55:40.294Z,39
2019-03-16T01:56:06.296Z,39
2019-03-16T01:56:32.298Z,39
2019-03-16T01:56:58.303Z,39
2019-03-16T01:57:24.376Z,39
2019-03-16T01:57:50.313Z,39
2019-03-16T01:58:16.299Z,39
2019-03-16T01:58:42.313Z,39
2019-03-16T01:59:08.303Z,39
2019-03-16T01:59:34.314Z,39
2019-03-16T02:00:00.299Z,39
2019-03-16T02:00:26.308Z,39
2019-03-16T02:00:52.381Z,39
2019-03-16T02:01:18.316Z,39
2019-03-16T02:01:44.316Z,39
2019-03-16T02:02:10.328Z,39
2019-03-16T02:02:36.309Z,39
2019-03-16T02:03:02.311Z,39
2019-03-16T02:03:28.309Z,39
2019-03-16T02:03:54.316Z,39
2019-03-16T02:04:20.389Z,39
2019-03-16T02:04:46.306Z,39
2019-03-16T02:05:12.323Z,39
2019-03-16T02:05:38.324Z,39
2019-03-16T02:06:04.703Z,39
2019-03-16T02:06:30.316Z,39
2019-03-16T02:06:56.382Z,39
2019-03-16T02:07:22.328Z,39
2019-03-16T02:07:48.315Z,39
2019-03-16T02:08:14.327Z,39
2019-03-16T02:08:40.317Z,39
2019-03-16T02:09:06.326Z,39
2019-03-16T02:09:32.507Z,39
2019-03-16T02:09:58.330Z,39
2019-03-16T02:10:24.331Z,39
2019-03-16T02:10:50.338Z,40
2019-03-16T02:11:16.316Z,39
2019-03-16T02:11:42.319Z,39
2019-03-16T02:12:08.326Z,39
2019-03-16T02:12:34.335Z,39
2019-03-16T02:13:00.333Z,39
2019-03-16T02:13:26.325Z,39
2019-03-16T02:13:52.335Z,39
2019-03-16T02:14:18.318Z,39
2019-03-16T02:14:44.463Z,39
2019-03-16T02:15:10.322Z,39
2019-03-16T02:15:36.329Z,39
2019-03-16T02:16:02.342Z,39
2019-03-16T02:16:28.406Z,39
2019-03-16T02:16:54.340Z,39
2019-03-16T02:17:20.342Z,39
2019-03-16T02:17:46.326Z,39
2019-03-16T02:18:12.332Z,39
2019-03-16T02:18:38.324Z,39
2019-03-16T02:19:04.334Z,39
2019-03-16T02:19:30.343Z,39
2019-03-16T02:19:56.328Z,39
2019-03-16T02:20:22.345Z,39
2019-03-16T02:21:14.344Z,39
2019-03-16T02:21:40.329Z,39
2019-03-16T02:22:06.329Z,40
2019-03-16T02:22:32.327Z,40
2019-03-16T02:22:58.325Z,40
2019-03-16T02:23:24.336Z,40
2019-03-16T02:23:50.347Z,40
2019-03-16T02:24:16.398Z,39
2019-03-16T02:24:42.346Z,39
2019-03-16T02:25:08.346Z,40
2019-03-16T02:25:34.347Z,40
2019-03-16T02:26:00.333Z,40
2019-03-16T02:26:26.333Z,40
2019-03-16T02:26:52.338Z,40
2019-03-16T02:27:18.349Z,40
2019-03-16T02:27:44.348Z,40
2019-03-16T02:28:10.475Z,40
2019-03-16T02:28:36.338Z,40
2019-03-16T02:29:02.352Z,40
2019-03-16T02:29:28.340Z,40
2019-03-16T02:29:54.339Z,40
2019-03-16T02:30:20.349Z,40
2019-03-16T02:30:46.342Z,40
2019-03-16T02:31:12.418Z,40
2019-03-16T02:31:38.358Z,40
2019-03-16T02:32:04.383Z,40
2019-03-16T02:32:30.595Z,40
2019-03-16T02:32:56.340Z,40
2019-03-16T02:33:22.344Z,40
2019-03-16T02:33:48.344Z,40
2019-03-16T02:34:14.351Z,40
2019-03-16T02:34:40.982Z,40
2019-03-16T02:35:06.411Z,40
2019-03-16T02:35:32.364Z,40
2019-03-16T02:35:58.349Z,40
2019-03-16T02:36:24.365Z,40
2019-03-16T02:36:50.348Z,40
2019-03-16T02:37:16.356Z,40
2019-03-16T02:37:42.430Z,40
2019-03-16T02:38:08.367Z,40
2019-03-16T02:38:34.366Z,40
2019-03-16T02:39:00.351Z,40
2019-03-16T02:39:26.351Z,40
2019-03-16T02:39:52.361Z,40
2019-03-16T02:40:18.355Z,40
2019-03-16T02:40:44.362Z,41
2019-03-16T02:41:10.380Z,40
2019-03-16T02:41:36.354Z,40
2019-03-16T02:42:02.368Z,40
2019-03-16T02:42:28.356Z,40
2019-03-16T02:42:54.370Z,40
2019-03-16T02:43:20.358Z,40
2019-03-16T02:43:46.358Z,40
2019-03-16T02:44:12.360Z,40
2019-03-16T02:44:38.371Z,40
2019-03-16T02:45:04.440Z,40
2019-03-16T02:45:30.377Z,40
2019-03-16T02:45:56.365Z,40
2019-03-16T02:46:22.379Z,40
2019-03-16T02:46:48.359Z,40
2019-03-16T02:47:14.378Z,41
2019-03-16T02:47:40.373Z,40
2019-03-16T02:48:06.432Z,40
2019-03-16T02:48:32.382Z,40
2019-03-16T02:48:58.365Z,40
2019-03-16T02:49:24.381Z,40
2019-03-16T02:49:50.370Z,40
2019-03-16T02:50:16.369Z,40
2019-03-16T02:50:42.391Z,40
2019-03-16T02:51:08.385Z,40
2019-03-16T02:51:34.386Z,40
2019-03-16T02:52:00.383Z,40
2019-03-16T02:52:26.371Z,40
2019-03-16T02:52:52.383Z,40
2019-03-16T02:53:18.373Z,40
2019-03-16T02:53:44.416Z,40
2019-03-16T02:54:10.389Z,40
2019-03-16T02:54:36.441Z,40
2019-03-16T02:55:02.390Z,40
2019-03-16T02:55:28.378Z,40
2019-03-16T02:55:54.401Z,40
2019-03-16T02:56:20.378Z,40
2019-03-16T02:56:46.375Z,40
2019-03-16T02:57:12.387Z,40
2019-03-16T02:57:38.458Z,40
2019-03-16T02:58:04.458Z,40
2019-03-16T02:58:30.399Z,40
2019-03-16T02:58:56.382Z,40
2019-03-16T02:59:22.399Z,40
2019-03-16T02:59:48.386Z,40
2019-03-16T03:00:14.399Z,40
2019-03-16T03:00:40.391Z,40
2019-03-16T03:01:06.446Z,40
2019-03-16T03:01:32.405Z,41
2019-03-16T03:01:58.383Z,41
2019-03-16T03:02:24.401Z,41
2019-03-16T03:02:50.385Z,41
2019-03-16T03:03:16.387Z,41
2019-03-16T03:03:42.392Z,41
2019-03-16T03:04:08.414Z,41
2019-03-16T03:04:34.406Z,40
2019-03-16T03:05:00.404Z,40
2019-03-16T03:05:26.389Z,40
2019-03-16T03:05:52.406Z,41
2019-03-16T03:06:18.388Z,41
2019-03-16T03:06:44.406Z,41
2019-03-16T03:07:10.392Z,41
2019-03-16T03:07:36.397Z,41
2019-03-16T03:08:02.413Z,41
2019-03-16T03:08:28.475Z,41
2019-03-16T03:08:54.407Z,41
2019-03-16T03:09:20.412Z,41
2019-03-16T03:09:46.401Z,41
2019-03-16T03:10:12.397Z,41
2019-03-16T03:10:38.395Z,41
2019-03-16T03:11:04.403Z,41
2019-03-16T03:11:30.411Z,41
2019-03-16T03:11:56.401Z,41
2019-03-16T03:12:22.414Z,41
2019-03-16T03:12:48.400Z,41
2019-03-16T03:13:14.421Z,41
2019-03-16T03:13:40.403Z,41
2019-03-16T03:14:06.410Z,41
2019-03-16T03:14:32.628Z,41
2019-03-16T03:14:58.416Z,41
2019-03-16T03:15:24.416Z,41
2019-03-16T03:15:50.419Z,41
2019-03-16T03:16:16.409Z,41
2019-03-16T03:16:42.406Z,41
2019-03-16T03:17:08.423Z,41
2019-03-16T03:17:34.425Z,41
2019-03-16T03:18:00.425Z,41
2019-03-16T03:18:26.407Z,41
2019-03-16T03:18:52.424Z,41
2019-03-16T03:19:18.418Z,41
2019-03-16T03:19:44.409Z,42
2019-03-16T03:20:10.426Z,41
2019-03-16T03:20:36.410Z,41
2019-03-16T03:21:02.428Z,41
2019-03-16T03:21:28.412Z,42
2019-03-16T03:21:54.427Z,41
2019-03-16T03:22:20.416Z,41
2019-03-16T03:22:46.419Z,41
2019-03-16T03:23:12.693Z,41
2019-03-16T03:23:38.423Z,41
2019-03-16T03:24:04.433Z,41
2019-03-16T03:24:30.498Z,41
2019-03-16T03:24:56.419Z,42
2019-03-16T03:25:22.434Z,42
2019-03-16T03:25:48.420Z,42
2019-03-16T03:26:14.432Z,42
2019-03-16T03:26:40.417Z,42
2019-03-16T03:27:06.422Z,42
2019-03-16T03:27:32.424Z,42
2019-03-16T03:27:58.439Z,42
2019-03-16T03:28:24.440Z,42
2019-03-16T03:28:50.442Z,42
2019-03-16T03:29:16.426Z,42
2019-03-16T03:29:42.440Z,42
2019-03-16T03:30:08.425Z,42
2019-03-16T03:30:34.422Z,42
2019-03-16T03:31:00.439Z,42
2019-03-16T03:31:26.497Z,42
2019-03-16T03:31:52.441Z,42
2019-03-16T03:32:18.428Z,42
2019-03-16T03:32:44.444Z,42
2019-03-16T03:33:10.428Z,42
2019-03-16T03:33:36.437Z,42
2019-03-16T03:34:02.429Z,42
2019-03-16T03:34:28.446Z,42
2019-03-16T03:34:54.443Z,42
2019-03-16T03:35:20.443Z,42
2019-03-16T03:35:46.431Z,42
2019-03-16T03:36:12.445Z,42
2019-03-16T03:36:38.435Z,42
2019-03-16T03:37:04.443Z,41
2019-03-16T03:37:30.450Z,41
2019-03-16T03:37:56.435Z,42
2019-03-16T03:38:22.451Z,42
2019-03-16T03:38:48.434Z,42
2019-03-16T03:39:14.451Z,42
2019-03-16T03:39:40.438Z,42
2019-03-16T03:40:06.439Z,42
2019-03-16T03:40:32.454Z,42
2019-03-16T03:40:58.520Z,42
2019-03-16T03:41:24.458Z,42
2019-03-16T03:41:50.462Z,42
2019-03-16T03:42:16.441Z,42
2019-03-16T03:42:42.447Z,42
2019-03-16T03:43:08.448Z,42
2019-03-16T03:43:34.452Z,42
2019-03-16T03:44:00.519Z,42
2019-03-16T03:44:26.445Z,42
2019-03-16T03:44:52.458Z,42
2019-03-16T03:45:18.448Z,43
2019-03-16T03:45:44.509Z,43
2019-03-16T03:46:10.451Z,43
2019-03-16T03:46:36.460Z,43
2019-03-16T03:47:02.527Z,43
2019-03-16T03:47:28.466Z,43
2019-03-16T03:47:54.468Z,43
2019-03-16T03:48:20.465Z,43
2019-03-16T03:48:46.450Z,43
2019-03-16T03:49:12.451Z,43
2019-03-16T03:49:38.453Z,43
2019-03-16T03:50:04.461Z,43
2019-03-16T03:50:30.468Z,43
2019-03-16T03:50:56.455Z,43
2019-03-16T03:51:22.473Z,43
2019-03-16T03:51:48.458Z,43
2019-03-16T03:52:14.473Z,43
2019-03-16T03:52:40.461Z,43
2019-03-16T03:53:06.453Z,43
2019-03-16T03:53:32.537Z,43
2019-03-16T03:53:58.472Z,43
2019-03-16T03:54:24.475Z,43
2019-03-16T03:54:50.459Z,43
2019-03-16T03:55:16.465Z,43
2019-03-16T03:55:42.463Z,43
2019-03-16T03:56:08.484Z,43
2019-03-16T03:56:35.322Z,43
2019-03-16T03:57:00.482Z,43
2019-03-16T03:57:26.473Z,43
2019-03-16T03:57:52.483Z,43
2019-03-16T03:58:18.465Z,43
2019-03-16T03:58:44.480Z,43
2019-03-16T03:59:10.473Z,43
2019-03-16T03:59:36.537Z,43
2019-03-16T04:00:02.482Z,43
2019-03-16T04:00:28.487Z,43
2019-03-16T04:00:54.483Z,43
2019-03-16T04:01:20.483Z,42
2019-03-16T04:01:46.472Z,43
2019-03-16T04:02:12.486Z,43
2019-03-16T04:02:38.468Z,43
2019-03-16T04:03:04.471Z,43
2019-03-16T04:03:30.481Z,43
2019-03-16T04:03:56.540Z,43
2019-03-16T04:04:22.488Z,43
2019-03-16T04:04:48.474Z,43
2019-03-16T04:05:14.496Z,43
2019-03-16T04:05:40.474Z,43
2019-03-16T04:06:06.474Z,43
2019-03-16T04:06:32.477Z,43
2019-03-16T04:06:58.491Z,43
2019-03-16T04:07:24.488Z,43
2019-03-16T04:07:50.555Z,43
2019-03-16T04:08:16.543Z,43
2019-03-16T04:08:42.499Z,43
2019-03-16T04:09:08.481Z,43
2019-03-16T04:09:34.497Z,43
2019-03-16T04:10:00.482Z,43
2019-03-16T04:10:26.564Z,43
2019-03-16T04:10:52.490Z,44
2019-03-16T04:11:18.502Z,44
2019-03-16T04:11:44.504Z,43
2019-03-16T04:12:10.496Z,43
2019-03-16T04:12:36.484Z,43
2019-03-16T04:13:02.500Z,43
2019-03-16T04:13:28.485Z,44
2019-03-16T04:13:54.492Z,44
2019-03-16T04:14:20.505Z,44
2019-03-16T04:14:46.554Z,44
2019-03-16T04:15:12.505Z,44
2019-03-16T04:15:38.490Z,44
2019-03-16T04:16:04.508Z,44
2019-03-16T04:16:30.498Z,44
2019-03-16T04:16:56.493Z,44
2019-03-16T04:17:22.490Z,44
2019-03-16T04:17:48.492Z,44
2019-03-16T04:18:14.500Z,44
2019-03-16T04:18:40.514Z,44
2019-03-16T04:19:06.493Z,44
2019-03-16T04:19:32.513Z,44
2019-03-16T04:19:58.496Z,44
2019-03-16T04:20:24.517Z,44
2019-03-16T04:20:50.508Z,44
2019-03-16T04:21:16.496Z,44
2019-03-16T04:21:42.514Z,44
2019-03-16T04:22:08.510Z,44
2019-03-16T04:22:34.512Z,44
2019-03-16T04:23:00.514Z,44
2019-03-16T04:23:26.503Z,44
2019-03-16T04:23:52.500Z,44
2019-03-16T04:24:18.505Z,44
2019-03-16T04:24:44.517Z,45
2019-03-16T04:25:10.516Z,44
2019-03-16T04:25:36.505Z,44
2019-03-16T04:26:02.524Z,44
2019-03-16T04:26:28.500Z,44
2019-03-16T04:26:54.519Z,44
2019-03-16T04:27:20.506Z,44
2019-03-16T04:27:46.505Z,44
2019-03-16T04:28:12.506Z,44
2019-03-16T04:28:38.510Z,44
2019-03-16T04:29:04.527Z,44
2019-03-16T04:29:30.525Z,44
2019-03-16T04:29:56.509Z,44
2019-03-16T04:30:22.528Z,44
2019-03-16T04:30:48.516Z,44
2019-03-16T04:31:14.526Z,44
2019-03-16T04:31:40.511Z,44
2019-03-16T04:32:06.513Z,44
2019-03-16T04:32:32.539Z,44
2019-03-16T04:32:58.534Z,44
2019-03-16T04:33:24.530Z,44
2019-03-16T04:33:50.519Z,44
2019-03-16T04:34:16.516Z,44
2019-03-16T04:34:42.516Z,44
2019-03-16T04:35:08.537Z,44
2019-03-16T04:35:34.612Z,44
2019-03-16T04:36:00.532Z,44
2019-03-16T04:36:26.519Z,44
2019-03-16T04:36:52.534Z,44
2019-03-16T04:37:18.522Z,44
2019-03-16T04:37:44.534Z,45
2019-03-16T04:38:10.533Z,44
2019-03-16T04:38:36.523Z,44
2019-03-16T04:39:02.536Z,44
2019-03-16T04:39:28.546Z,44
2019-03-16T04:39:54.541Z,44
2019-03-16T04:40:20.527Z,44
2019-03-16T04:40:46.523Z,44
2019-03-16T04:41:12.521Z,44
2019-03-16T04:41:38.524Z,44
2019-03-16T04:42:04.534Z,44
2019-03-16T04:42:30.542Z,44
2019-03-16T04:42:56.617Z,44
2019-03-16T04:43:22.546Z,44
2019-03-16T04:43:48.529Z,45
2019-03-16T04:44:14.543Z,45
2019-03-16T04:44:40.533Z,45
2019-03-16T04:45:06.544Z,45
2019-03-16T04:45:33.118Z,45
2019-03-16T04:45:58.547Z,45
2019-03-16T04:46:24.567Z,45
2019-03-16T04:46:50.548Z,45
2019-03-16T04:47:16.534Z,45
2019-03-16T04:47:42.535Z,45
2019-03-16T04:48:08.537Z,45
2019-03-16T04:48:34.547Z,44
2019-03-16T04:49:00.558Z,45
2019-03-16T04:49:26.602Z,45
2019-03-16T04:49:52.554Z,45
2019-03-16T04:50:18.550Z,45
2019-03-16T04:50:44.554Z,45
2019-03-16T04:51:10.539Z,45
2019-03-16T04:51:36.541Z,45
2019-03-16T04:52:02.541Z,45
2019-03-16T04:52:28.561Z,45
2019-03-16T04:52:54.557Z,45
2019-03-16T04:53:20.557Z,45
2019-03-16T04:53:46.544Z,45
2019-03-16T04:54:12.564Z,45
2019-03-16T04:54:38.547Z,45
2019-03-16T04:55:04.542Z,45
2019-03-16T04:55:30.560Z,45
2019-03-16T04:55:56.547Z,45
2019-03-16T04:56:22.564Z,45
2019-03-16T04:56:48.547Z,45
2019-03-16T04:57:14.566Z,45
2019-03-16T04:57:40.552Z,45
2019-03-16T04:58:06.557Z,45
2019-03-16T04:58:32.572Z,45
2019-03-16T04:58:58.571Z,45
2019-03-16T04:59:24.572Z,45
2019-03-16T04:59:50.565Z,45
2019-03-16T05:00:16.552Z,45
2019-03-16T05:00:43.247Z,45
2019-03-16T05:01:08.557Z,45
2019-03-16T05:01:34.568Z,45
2019-03-16T05:02:00.570Z,45
2019-03-16T05:02:26.630Z,45
2019-03-16T05:02:52.570Z,45
2019-03-16T05:03:18.572Z,45
2019-03-16T05:03:44.575Z,45
2019-03-16T05:04:10.556Z,45
2019-03-16T05:04:36.556Z,45
2019-03-16T05:05:02.557Z,45
2019-03-16T05:05:28.560Z,46
2019-03-16T05:05:54.575Z,45
2019-03-16T05:06:20.573Z,45
2019-03-16T05:06:46.559Z,45
2019-03-16T05:07:12.575Z,45
2019-03-16T05:07:38.561Z,45
2019-03-16T05:08:04.577Z,45
2019-03-16T05:08:30.564Z,45
2019-03-16T05:08:56.571Z,45
2019-03-16T05:09:22.578Z,45
2019-03-16T05:09:48.642Z,45
2019-03-16T05:10:14.582Z,45
2019-03-16T05:10:40.582Z,45
2019-03-16T05:11:06.567Z,45
2019-03-16T05:11:32.588Z,46
2019-03-16T05:11:58.575Z,45
2019-03-16T05:12:24.586Z,45
2019-03-16T05:12:50.569Z,46
2019-03-16T05:13:16.572Z,46
2019-03-16T05:13:42.650Z,46
2019-03-16T05:14:08.585Z,46
2019-03-16T05:14:34.588Z,46
2019-03-16T05:15:00.600Z,46
2019-03-16T05:15:26.577Z,46
2019-03-16T05:15:52.573Z,46
2019-03-16T05:16:18.583Z,46
2019-03-16T05:16:44.592Z,46
2019-03-16T05:17:10.658Z,46
2019-03-16T05:17:36.577Z,46
2019-03-16T05:18:02.593Z,46
2019-03-16T05:18:28.576Z,46
2019-03-16T05:18:54.590Z,46
2019-03-16T05:19:20.577Z,46
2019-03-16T05:19:46.582Z,46
2019-03-16T05:20:12.826Z,46
2019-03-16T05:20:38.590Z,46
2019-03-16T05:21:04.661Z,46
2019-03-16T05:21:30.597Z,47
2019-03-16T05:21:56.597Z,47
2019-03-16T05:22:22.607Z,47
2019-03-16T05:22:48.589Z,47
2019-03-16T05:23:14.599Z,47
2019-03-16T05:23:40.583Z,46
2019-03-16T05:24:06.587Z,46
2019-03-16T05:24:32.603Z,46
2019-03-16T05:24:58.603Z,47
2019-03-16T05:25:24.600Z,47
2019-03-16T05:25:50.603Z,47
2019-03-16T05:26:16.601Z,47
2019-03-16T05:26:42.597Z,47
2019-03-16T05:27:08.591Z,47
2019-03-16T05:27:34.634Z,47
2019-03-16T05:28:00.609Z,47
2019-03-16T05:28:26.592Z,47
2019-03-16T05:28:52.643Z,47
2019-03-16T05:29:18.594Z,47
2019-03-16T05:29:44.607Z,47
2019-03-16T05:30:10.592Z,47
2019-03-16T05:30:36.603Z,47
2019-03-16T05:31:02.608Z,47
2019-03-16T05:31:28.678Z,47
2019-03-16T05:31:54.615Z,47
2019-03-16T05:32:20.633Z,47
2019-03-16T05:32:46.598Z,47
2019-03-16T05:33:12.611Z,47
2019-03-16T05:33:38.597Z,47
2019-03-16T05:34:04.602Z,47
2019-03-16T05:34:30.621Z,47
2019-03-16T05:34:56.670Z,47
2019-03-16T05:35:22.618Z,47
2019-03-16T05:35:48.617Z,47
2019-03-16T05:36:14.618Z,47
2019-03-16T05:36:40.603Z,47
2019-03-16T05:37:06.607Z,47
2019-03-16T05:37:32.624Z,47
2019-03-16T05:37:58.621Z,47
2019-03-16T05:38:24.620Z,47
2019-03-16T05:38:50.632Z,47
2019-03-16T05:39:16.623Z,47
2019-03-16T05:39:42.608Z,47
2019-03-16T05:40:08.607Z,47
2019-03-16T05:40:35.019Z,47
2019-03-16T05:41:00.625Z,46
2019-03-16T05:41:26.673Z,47
2019-03-16T05:41:52.626Z,47
2019-03-16T05:42:18.626Z,47
2019-03-16T05:42:44.635Z,47
2019-03-16T05:43:10.612Z,47
2019-03-16T05:43:36.615Z,47
2019-03-16T05:44:02.616Z,47
2019-03-16T05:44:28.631Z,47
2019-03-16T05:44:54.697Z,47
2019-03-16T05:45:20.633Z,47
2019-03-16T05:45:46.627Z,47
2019-03-16T05:46:12.635Z,47
2019-03-16T05:46:38.619Z,47
2019-03-16T05:47:04.891Z,47
2019-03-16T05:47:30.617Z,47
2019-03-16T05:47:56.617Z,47
2019-03-16T05:48:22.634Z,47
2019-03-16T05:48:48.620Z,47
2019-03-16T05:49:14.634Z,47
2019-03-16T05:49:40.622Z,48
2019-03-16T05:50:06.624Z,47
2019-03-16T05:50:32.624Z,47
2019-03-16T05:50:58.643Z,47
2019-03-16T05:51:24.640Z,47
2019-03-16T05:51:50.639Z,47
2019-03-16T05:52:16.623Z,47
2019-03-16T05:52:42.624Z,48
2019-03-16T05:53:08.628Z,47
2019-03-16T05:53:34.636Z,47
2019-03-16T05:54:00.641Z,47
2019-03-16T05:54:26.630Z,47
2019-03-16T05:54:52.646Z,47
2019-03-16T05:55:18.649Z,47
2019-03-16T05:55:44.650Z,47
2019-03-16T05:56:10.635Z,47
2019-03-16T05:56:36.643Z,47
2019-03-16T05:57:02.628Z,47
2019-03-16T05:57:28.631Z,47
2019-03-16T05:57:54.645Z,47
2019-03-16T05:58:20.715Z,47
2019-03-16T05:58:46.632Z,47
2019-03-16T05:59:12.654Z,47
2019-03-16T05:59:38.639Z,47
2019-03-16T06:00:04.650Z,47
2019-03-16T06:00:30.638Z,47
2019-03-16T06:00:56.647Z,47
2019-03-16T06:01:22.659Z,47
2019-03-16T06:01:48.655Z,47
2019-03-16T06:02:14.655Z,47
2019-03-16T06:02:40.640Z,47
2019-03-16T06:03:06.641Z,47
2019-03-16T06:03:32.640Z,47
2019-03-16T06:03:58.660Z,47
2019-03-16T06:04:24.660Z,47
2019-03-16T06:04:50.658Z,47
2019-03-16T06:05:16.655Z,47
2019-03-16T06:05:42.665Z,47
2019-03-16T06:06:08.643Z,47
2019-03-16T06:06:34.649Z,47
2019-03-16T06:07:00.920Z,47
2019-03-16T06:07:26.911Z,47
2019-03-16T06:07:52.661Z,47
2019-03-16T06:08:18.662Z,47
2019-03-16T06:08:44.666Z,47
2019-03-16T06:09:10.652Z,46
2019-03-16T06:09:36.650Z,47
2019-03-16T06:10:02.661Z,47
2019-03-16T06:10:28.663Z,47
2019-03-16T06:10:54.669Z,47
2019-03-16T06:11:20.667Z,47